aviador You're here:

KAZO Decoded Metar

KALAMAZOO in MI, USA
Report Time2018-01-18 09:53:00
UTC Time2018-01-18 10:08:49
Flight Rules vfr VFR
Wind220° at 14 kt
W.Decomp.*RWY 23: 13.9 kt HW 1.7 kt LCW
RWY 27: 9.5 kt HW 10.2 kt LCW
RWY 17: 8.4 kt HW 11.2 kt RCW
W.Rank220° ranks 4
Current wind is above 220° avg. (8.3)
Visibility9999 m
Phenomena:N/A
Clouds:N/A
Expected CloudBase > 1,600 ft AGL from Temp-Dew spread
CeilingNone
Temp-9°C (ISA -22)
Dew Point-13°C (73% RH)
AAT-17.3°C
QNH1019 hPa
Density Alt-2,047 ft
Elevation892 ft
Report Wrong Elevation
Raw Report
METAR KAZO 180953Z AUTO 22014KT 10SM CLR M09/M13 A3009 RMK AO2 SLP206
T10891128=

Extra information for KAZO:More info

Metar Taf Metar & Taf Last 4 Metars F.Rules Stats Wind Profile Meteogram Temp Stats Airport Information Weather charts Add Link Nearby VenuesMetar ALERT Operation Metar Decoded Social comments

AIRNAV info for KAZO